sensor_id;sensor_type;location;lat;lon;timestamp;P1;durP1;ratioP1;P2;durP2;ratioP2
75990;SDS011;64673;52.276;10.560;2023-02-01T00:01:44;5.80;;;0.77;;
75990;SDS011;64673;52.276;10.560;2023-02-01T00:04:10;9.98;;;1.15;;
75990;SDS011;64673;52.276;10.560;2023-02-01T00:06:36;9.20;;;1.65;;
75990;SDS011;64673;52.276;10.560;2023-02-01T00:09:01;7.75;;;1.30;;
75990;SDS011;64673;52.276;10.560;2023-02-01T00:11:27;8.63;;;1.58;;
75990;SDS011;64673;52.276;10.560;2023-02-01T00:13:52;4.13;;;0.98;;
75990;SDS011;64673;52.276;10.560;2023-02-01T00:16:19;10.63;;;1.05;;
75990;SDS011;64673;52.276;10.560;2023-02-01T00:18:51;5.10;;;0.90;;
75990;SDS011;64673;52.276;10.560;2023-02-01T00:21:18;9.52;;;1.02;;
75990;SDS011;64673;52.276;10.560;2023-02-01T00:23:45;10.57;;;1.33;;
75990;SDS011;64673;52.276;10.560;2023-02-01T00:26:16;6.38;;;1.27;;
75990;SDS011;64673;52.276;10.560;2023-02-01T00:28:43;8.55;;;1.08;;
75990;SDS011;64673;52.276;10.560;2023-02-01T00:31:08;13.57;;;2.40;;
75990;SDS011;64673;52.276;10.560;2023-02-01T00:33:34;6.65;;;1.23;;
75990;SDS011;64673;52.276;10.560;2023-02-01T00:36:04;8.85;;;1.20;;
75990;SDS011;64673;52.276;10.560;2023-02-01T00:38:32;7.60;;;1.55;;
75990;SDS011;64673;52.276;10.560;2023-02-01T00:43:35;15.13;;;2.60;;
75990;SDS011;64673;52.276;10.560;2023-02-01T00:46:01;8.63;;;2.05;;
75990;SDS011;64673;52.276;10.560;2023-02-01T00:48:26;10.07;;;1.80;;
75990;SDS011;64673;52.276;10.560;2023-02-01T00:50:52;8.77;;;1.33;;
75990;SDS011;64673;52.276;10.560;2023-02-01T00:53:17;10.80;;;1.55;;
75990;SDS011;64673;52.276;10.560;2023-02-01T00:55:46;9.65;;;1.27;;
75990;SDS011;64673;52.276;10.560;2023-02-01T00:58:12;15.60;;;1.33;;
75990;SDS011;64673;52.276;10.560;2023-02-01T01:00:38;8.40;;;0.98;;
75990;SDS011;64673;52.276;10.560;2023-02-01T01:03:04;9.63;;;1.45;;
75990;SDS011;64673;52.276;10.560;2023-02-01T01:05:43;9.60;;;1.38;;
75990;SDS011;64673;52.276;10.560;2023-02-01T01:08:12;16.38;;;1.63;;
75990;SDS011;64673;52.276;10.560;2023-02-01T01:10:38;10.25;;;1.17;;
75990;SDS011;64673;52.276;10.560;2023-02-01T01:13:04;12.10;;;2.08;;
75990;SDS011;64673;52.276;10.560;2023-02-01T01:15:29;7.68;;;1.80;;
75990;SDS011;64673;52.276;10.560;2023-02-01T01:17:55;13.90;;;2.00;;
75990;SDS011;64673;52.276;10.560;2023-02-01T01:20:20;9.25;;;1.65;;
75990;SDS011;64673;52.276;10.560;2023-02-01T01:22:46;6.03;;;1.13;;
75990;SDS011;64673;52.276;10.560;2023-02-01T01:25:12;9.50;;;1.42;;
75990;SDS011;64673;52.276;10.560;2023-02-01T01:27:38;10.30;;;1.30;;
75990;SDS011;64673;52.276;10.560;2023-02-01T01:30:04;12.38;;;1.73;;
75990;SDS011;64673;52.276;10.560;2023-02-01T01:32:30;8.88;;;1.08;;
75990;SDS011;64673;52.276;10.560;2023-02-01T01:34:55;5.68;;;1.17;;
75990;SDS011;64673;52.276;10.560;2023-02-01T01:37:20;12.30;;;1.83;;
75990;SDS011;64673;52.276;10.560;2023-02-01T01:39:45;10.00;;;1.48;;
75990;SDS011;64673;52.276;10.560;2023-02-01T01:42:11;14.40;;;1.45;;
75990;SDS011;64673;52.276;10.560;2023-02-01T01:47:33;6.68;;;1.50;;
75990;SDS011;64673;52.276;10.560;2023-02-01T01:50:02;5.65;;;1.20;;
75990;SDS011;64673;52.276;10.560;2023-02-01T01:52:32;12.23;;;2.00;;
75990;SDS011;64673;52.276;10.560;2023-02-01T01:54:58;10.50;;;1.80;;
75990;SDS011;64673;52.276;10.560;2023-02-01T01:57:25;10.23;;;1.48;;
75990;SDS011;64673;52.276;10.560;2023-02-01T01:59:56;6.57;;;1.27;;
75990;SDS011;64673;52.276;10.560;2023-02-01T02:02:28;16.95;;;1.42;;
75990;SDS011;64673;52.276;10.560;2023-02-01T02:04:53;7.57;;;1.33;;
75990;SDS011;64673;52.276;10.560;2023-02-01T02:07:23;6.28;;;1.30;;
75990;SDS011;64673;52.276;10.560;2023-02-01T02:09:53;8.25;;;1.45;;
75990;SDS011;64673;52.276;10.560;2023-02-01T02:12:19;7.55;;;1.33;;
75990;SDS011;64673;52.276;10.560;2023-02-01T02:14:44;10.48;;;2.25;;
75990;SDS011;64673;52.276;10.560;2023-02-01T02:17:30;8.05;;;1.42;;
75990;SDS011;64673;52.276;10.560;2023-02-01T02:28:57;9.68;;;1.20;;
75990;SDS011;64673;52.276;10.560;2023-02-01T02:36:59;8.75;;;1.90;;
75990;SDS011;64673;52.276;10.560;2023-02-01T02:43:26;12.90;;;1.40;;
75990;SDS011;64673;52.276;10.560;2023-02-01T02:46:15;7.55;;;1.38;;
75990;SDS011;64673;52.276;10.560;2023-02-01T02:51:50;5.32;;;0.85;;
75990;SDS011;64673;52.276;10.560;2023-02-01T02:54:40;13.63;;;2.30;;
75990;SDS011;64673;52.276;10.560;2023-02-01T02:57:24;11.73;;;1.40;;
75990;SDS011;64673;52.276;10.560;2023-02-01T03:00:19;9.40;;;1.45;;
75990;SDS011;64673;52.276;10.560;2023-02-01T03:03:06;10.55;;;1.58;;
75990;SDS011;64673;52.276;10.560;2023-02-01T03:05:50;10.80;;;1.63;;
75990;SDS011;64673;52.276;10.560;2023-02-01T03:08:23;13.05;;;1.55;;
75990;SDS011;64673;52.276;10.560;2023-02-01T03:11:04;9.15;;;1.73;;
75990;SDS011;64673;52.276;10.560;2023-02-01T03:16:14;8.60;;;1.50;;
75990;SDS011;64673;52.276;10.560;2023-02-01T03:21:43;8.32;;;1.30;;
75990;SDS011;64673;52.276;10.560;2023-02-01T03:24:16;8.70;;;1.63;;
75990;SDS011;64673;52.276;10.560;2023-02-01T03:27:00;12.98;;;2.20;;
75990;SDS011;64673;52.276;10.560;2023-02-01T03:29:35;12.90;;;1.60;;
75990;SDS011;64673;52.276;10.560;2023-02-01T03:32:04;12.25;;;1.75;;
75990;SDS011;64673;52.276;10.560;2023-02-01T03:34:30;5.72;;;1.20;;
75990;SDS011;64673;52.276;10.560;2023-02-01T03:36:58;5.60;;;1.40;;
75990;SDS011;64673;52.276;10.560;2023-02-01T03:42:38;7.22;;;1.63;;
75990;SDS011;64673;52.276;10.560;2023-02-01T03:45:10;8.18;;;1.92;;
75990;SDS011;64673;52.276;10.560;2023-02-01T03:47:43;14.82;;;2.10;;
75990;SDS011;64673;52.276;10.560;2023-02-01T03:50:14;10.45;;;1.50;;
75990;SDS011;64673;52.276;10.560;2023-02-01T03:52:47;10.98;;;2.28;;
75990;SDS011;64673;52.276;10.560;2023-02-01T03:55:18;11.95;;;2.13;;
75990;SDS011;64673;52.276;10.560;2023-02-01T03:57:50;16.35;;;1.92;;
75990;SDS011;64673;52.276;10.560;2023-02-01T04:00:21;8.77;;;1.45;;
75990;SDS011;64673;52.276;10.560;2023-02-01T04:02:48;10.35;;;1.83;;
75990;SDS011;64673;52.276;10.560;2023-02-01T04:05:14;9.27;;;1.65;;
75990;SDS011;64673;52.276;10.560;2023-02-01T04:07:39;15.48;;;2.00;;
75990;SDS011;64673;52.276;10.560;2023-02-01T04:10:05;12.77;;;1.98;;
75990;SDS011;64673;52.276;10.560;2023-02-01T04:12:32;13.60;;;1.90;;
75990;SDS011;64673;52.276;10.560;2023-02-01T04:14:57;15.15;;;2.85;;
75990;SDS011;64673;52.276;10.560;2023-02-01T04:17:23;10.40;;;2.15;;
75990;SDS011;64673;52.276;10.560;2023-02-01T04:19:48;6.90;;;1.90;;
75990;SDS011;64673;52.276;10.560;2023-02-01T04:22:14;15.48;;;2.80;;
75990;SDS011;64673;52.276;10.560;2023-02-01T04:24:39;10.85;;;2.00;;
75990;SDS011;64673;52.276;10.560;2023-02-01T04:27:04;8.50;;;2.00;;
75990;SDS011;64673;52.276;10.560;2023-02-01T04:29:30;13.30;;;2.78;;
75990;SDS011;64673;52.276;10.560;2023-02-01T04:31:55;10.98;;;1.60;;
75990;SDS011;64673;52.276;10.560;2023-02-01T04:34:20;10.68;;;2.42;;
75990;SDS011;64673;52.276;10.560;2023-02-01T04:36:47;13.77;;;2.65;;
75990;SDS011;64673;52.276;10.560;2023-02-01T04:39:12;8.85;;;2.05;;
75990;SDS011;64673;52.276;10.560;2023-02-01T04:41:38;11.98;;;2.35;;
75990;SDS011;64673;52.276;10.560;2023-02-01T04:44:03;10.32;;;2.08;;
75990;SDS011;64673;52.276;10.560;2023-02-01T04:46:28;12.18;;;1.70;;
75990;SDS011;64673;52.276;10.560;2023-02-01T04:48:54;14.15;;;1.90;;
75990;SDS011;64673;52.276;10.560;2023-02-01T04:51:19;11.55;;;2.22;;
75990;SDS011;64673;52.276;10.560;2023-02-01T04:53:44;10.80;;;2.00;;
75990;SDS011;64673;52.276;10.560;2023-02-01T04:56:10;12.18;;;2.47;;
75990;SDS011;64673;52.276;10.560;2023-02-01T04:58:35;7.88;;;2.20;;
75990;SDS011;64673;52.276;10.560;2023-02-01T05:01:05;9.68;;;2.33;;
75990;SDS011;64673;52.276;10.560;2023-02-01T05:03:34;7.15;;;2.03;;
75990;SDS011;64673;52.276;10.560;2023-02-01T05:06:00;8.88;;;2.20;;
75990;SDS011;64673;52.276;10.560;2023-02-01T05:08:25;11.38;;;2.88;;
75990;SDS011;64673;52.276;10.560;2023-02-01T05:10:52;8.90;;;1.60;;
75990;SDS011;64673;52.276;10.560;2023-02-01T05:13:18;9.38;;;1.88;;
75990;SDS011;64673;52.276;10.560;2023-02-01T05:16:01;10.00;;;2.17;;
75990;SDS011;64673;52.276;10.560;2023-02-01T05:18:27;9.13;;;2.15;;
75990;SDS011;64673;52.276;10.560;2023-02-01T05:20:52;10.90;;;2.28;;
75990;SDS011;64673;52.276;10.560;2023-02-01T05:23:18;12.48;;;2.10;;
75990;SDS011;64673;52.276;10.560;2023-02-01T05:25:43;9.07;;;1.95;;
75990;SDS011;64673;52.276;10.560;2023-02-01T05:28:08;11.75;;;2.00;;
75990;SDS011;64673;52.276;10.560;2023-02-01T05:30:34;6.88;;;1.73;;
75990;SDS011;64673;52.276;10.560;2023-02-01T05:33:00;15.07;;;2.08;;
75990;SDS011;64673;52.276;10.560;2023-02-01T05:35:26;10.50;;;1.98;;
75990;SDS011;64673;52.276;10.560;2023-02-01T05:37:51;9.07;;;2.08;;
75990;SDS011;64673;52.276;10.560;2023-02-01T05:40:17;17.00;;;3.05;;
75990;SDS011;64673;52.276;10.560;2023-02-01T05:42:42;14.38;;;2.47;;
75990;SDS011;64673;52.276;10.560;2023-02-01T05:45:07;12.30;;;2.92;;
75990;SDS011;64673;52.276;10.560;2023-02-01T05:47:33;14.70;;;3.30;;
75990;SDS011;64673;52.276;10.560;2023-02-01T05:49:59;12.45;;;2.42;;
75990;SDS011;64673;52.276;10.560;2023-02-01T05:52:24;12.90;;;2.13;;
75990;SDS011;64673;52.276;10.560;2023-02-01T05:54:49;13.43;;;3.30;;
75990;SDS011;64673;52.276;10.560;2023-02-01T05:57:15;12.23;;;2.97;;
75990;SDS011;64673;52.276;10.560;2023-02-01T05:59:40;9.90;;;2.10;;
75990;SDS011;64673;52.276;10.560;2023-02-01T06:02:08;9.85;;;2.42;;
75990;SDS011;64673;52.276;10.560;2023-02-01T06:04:34;10.82;;;2.40;;
75990;SDS011;64673;52.276;10.560;2023-02-01T06:07:00;13.73;;;2.90;;
75990;SDS011;64673;52.276;10.560;2023-02-01T06:09:26;8.32;;;2.65;;
75990;SDS011;64673;52.276;10.560;2023-02-01T06:11:51;15.13;;;3.38;;
75990;SDS011;64673;52.276;10.560;2023-02-01T06:14:16;10.05;;;2.80;;
75990;SDS011;64673;52.276;10.560;2023-02-01T06:16:42;17.65;;;3.92;;
75990;SDS011;64673;52.276;10.560;2023-02-01T06:19:07;9.93;;;2.72;;
75990;SDS011;64673;52.276;10.560;2023-02-01T06:21:34;13.95;;;3.33;;
75990;SDS011;64673;52.276;10.560;2023-02-01T06:24:00;13.50;;;3.35;;
75990;SDS011;64673;52.276;10.560;2023-02-01T06:26:26;13.85;;;3.60;;
75990;SDS011;64673;52.276;10.560;2023-02-01T06:28:53;13.13;;;3.08;;
75990;SDS011;64673;52.276;10.560;2023-02-01T06:31:20;10.95;;;2.60;;
75990;SDS011;64673;52.276;10.560;2023-02-01T06:33:45;10.55;;;2.55;;
75990;SDS011;64673;52.276;10.560;2023-02-01T06:36:11;8.32;;;2.28;;
75990;SDS011;64673;52.276;10.560;2023-02-01T06:38:37;10.32;;;2.10;;
75990;SDS011;64673;52.276;10.560;2023-02-01T06:41:03;12.90;;;2.17;;
75990;SDS011;64673;52.276;10.560;2023-02-01T06:43:30;7.53;;;2.08;;
75990;SDS011;64673;52.276;10.560;2023-02-01T06:46:02;9.00;;;1.90;;
75990;SDS011;64673;52.276;10.560;2023-02-01T06:48:29;13.48;;;2.58;;
75990;SDS011;64673;52.276;10.560;2023-02-01T06:50:55;10.63;;;3.00;;
75990;SDS011;64673;52.276;10.560;2023-02-01T06:53:21;7.68;;;1.90;;
75990;SDS011;64673;52.276;10.560;2023-02-01T06:55:59;13.25;;;2.58;;
75990;SDS011;64673;52.276;10.560;2023-02-01T06:58:30;8.15;;;1.70;;
75990;SDS011;64673;52.276;10.560;2023-02-01T07:00:57;11.95;;;2.25;;
75990;SDS011;64673;52.276;10.560;2023-02-01T07:03:22;11.05;;;2.33;;
75990;SDS011;64673;52.276;10.560;2023-02-01T07:05:48;13.35;;;2.30;;
75990;SDS011;64673;52.276;10.560;2023-02-01T07:08:13;10.60;;;2.45;;
75990;SDS011;64673;52.276;10.560;2023-02-01T07:10:38;14.82;;;2.30;;
75990;SDS011;64673;52.276;10.560;2023-02-01T07:13:04;8.27;;;2.42;;
75990;SDS011;64673;52.276;10.560;2023-02-01T07:15:29;12.90;;;2.85;;
75990;SDS011;64673;52.276;10.560;2023-02-01T07:17:55;7.47;;;1.65;;
75990;SDS011;64673;52.276;10.560;2023-02-01T07:20:20;8.90;;;1.77;;
75990;SDS011;64673;52.276;10.560;2023-02-01T07:22:46;9.25;;;1.90;;
75990;SDS011;64673;52.276;10.560;2023-02-01T07:25:11;9.55;;;1.88;;
75990;SDS011;64673;52.276;10.560;2023-02-01T07:27:37;7.60;;;1.98;;
75990;SDS011;64673;52.276;10.560;2023-02-01T07:30:03;6.05;;;2.38;;
75990;SDS011;64673;52.276;10.560;2023-02-01T07:32:29;12.93;;;1.88;;
75990;SDS011;64673;52.276;10.560;2023-02-01T07:34:55;7.63;;;1.58;;
75990;SDS011;64673;52.276;10.560;2023-02-01T07:37:21;7.40;;;1.45;;
75990;SDS011;64673;52.276;10.560;2023-02-01T07:39:46;8.02;;;2.30;;
75990;SDS011;64673;52.276;10.560;2023-02-01T07:42:11;9.50;;;1.95;;
75990;SDS011;64673;52.276;10.560;2023-02-01T07:44:37;6.85;;;2.08;;
75990;SDS011;64673;52.276;10.560;2023-02-01T07:47:02;9.25;;;1.88;;
75990;SDS011;64673;52.276;10.560;2023-02-01T07:49:27;7.50;;;1.77;;
75990;SDS011;64673;52.276;10.560;2023-02-01T07:51:53;9.30;;;1.73;;
75990;SDS011;64673;52.276;10.560;2023-02-01T07:54:18;6.18;;;1.40;;
75990;SDS011;64673;52.276;10.560;2023-02-01T07:56:44;7.32;;;1.83;;
75990;SDS011;64673;52.276;10.560;2023-02-01T07:59:09;10.90;;;1.83;;
75990;SDS011;64673;52.276;10.560;2023-02-01T08:01:35;6.85;;;1.85;;
75990;SDS011;64673;52.276;10.560;2023-02-01T08:04:01;7.57;;;1.45;;
75990;SDS011;64673;52.276;10.560;2023-02-01T08:06:28;13.68;;;2.30;;
75990;SDS011;64673;52.276;10.560;2023-02-01T08:08:56;5.88;;;1.75;;
75990;SDS011;64673;52.276;10.560;2023-02-01T08:11:22;11.77;;;1.95;;
75990;SDS011;64673;52.276;10.560;2023-02-01T08:13:48;11.77;;;1.70;;
75990;SDS011;64673;52.276;10.560;2023-02-01T08:16:15;7.95;;;1.88;;
75990;SDS011;64673;52.276;10.560;2023-02-01T08:18:42;10.32;;;1.85;;
75990;SDS011;64673;52.276;10.560;2023-02-01T08:21:11;6.28;;;1.65;;
75990;SDS011;64673;52.276;10.560;2023-02-01T08:23:39;11.30;;;2.28;;
75990;SDS011;64673;52.276;10.560;2023-02-01T08:28:37;9.90;;;2.65;;
75990;SDS011;64673;52.276;10.560;2023-02-01T08:31:04;17.73;;;2.42;;
75990;SDS011;64673;52.276;10.560;2023-02-01T08:35:57;15.75;;;2.38;;
75990;SDS011;64673;52.276;10.560;2023-02-01T08:38:22;10.05;;;1.83;;
75990;SDS011;64673;52.276;10.560;2023-02-01T08:40:47;9.98;;;1.85;;
75990;SDS011;64673;52.276;10.560;2023-02-01T08:43:12;11.60;;;2.22;;
75990;SDS011;64673;52.276;10.560;2023-02-01T08:45:39;12.85;;;2.42;;
75990;SDS011;64673;52.276;10.560;2023-02-01T08:48:04;9.73;;;1.90;;
75990;SDS011;64673;52.276;10.560;2023-02-01T08:50:30;10.18;;;2.20;;
75990;SDS011;64673;52.276;10.560;2023-02-01T08:52:55;14.52;;;3.00;;
75990;SDS011;64673;52.276;10.560;2023-02-01T08:55:21;11.20;;;1.98;;
75990;SDS011;64673;52.276;10.560;2023-02-01T08:57:46;10.43;;;1.73;;
75990;SDS011;64673;52.276;10.560;2023-02-01T09:00:13;19.65;;;2.65;;
75990;SDS011;64673;52.276;10.560;2023-02-01T09:02:40;10.38;;;2.10;;
75990;SDS011;64673;52.276;10.560;2023-02-01T09:05:06;8.23;;;2.42;;
75990;SDS011;64673;52.276;10.560;2023-02-01T09:07:32;7.35;;;1.63;;
75990;SDS011;64673;52.276;10.560;2023-02-01T09:09:58;9.85;;;1.38;;
75990;SDS011;64673;52.276;10.560;2023-02-01T09:12:26;7.22;;;1.48;;
75990;SDS011;64673;52.276;10.560;2023-02-01T09:14:52;12.90;;;2.30;;
75990;SDS011;64673;52.276;10.560;2023-02-01T09:17:18;11.10;;;1.90;;
75990;SDS011;64673;52.276;10.560;2023-02-01T09:19:43;8.35;;;1.58;;
75990;SDS011;64673;52.276;10.560;2023-02-01T09:22:08;4.55;;;1.38;;
75990;SDS011;64673;52.276;10.560;2023-02-01T09:24:34;3.55;;;1.02;;
75990;SDS011;64673;52.276;10.560;2023-02-01T09:26:59;16.92;;;2.10;;
75990;SDS011;64673;52.276;10.560;2023-02-01T09:29:24;6.50;;;1.77;;
75990;SDS011;64673;52.276;10.560;2023-02-01T09:31:50;8.73;;;1.98;;
75990;SDS011;64673;52.276;10.560;2023-02-01T09:34:15;5.93;;;1.50;;
75990;SDS011;64673;52.276;10.560;2023-02-01T09:36:40;9.73;;;2.00;;
75990;SDS011;64673;52.276;10.560;2023-02-01T09:39:06;7.47;;;1.65;;
75990;SDS011;64673;52.276;10.560;2023-02-01T09:47:24;9.57;;;2.03;;
75990;SDS011;64673;52.276;10.560;2023-02-01T09:49:55;8.32;;;1.27;;
75990;SDS011;64673;52.276;10.560;2023-02-01T09:53:10;7.75;;;1.40;;
75990;SDS011;64673;52.276;10.560;2023-02-01T09:55:43;8.85;;;1.67;;
75990;SDS011;64673;52.276;10.560;2023-02-01T09:58:33;4.28;;;1.08;;
75990;SDS011;64673;52.276;10.560;2023-02-01T10:01:03;12.40;;;1.52;;
75990;SDS011;64673;52.276;10.560;2023-02-01T10:03:34;8.70;;;1.27;;
75990;SDS011;64673;52.276;10.560;2023-02-01T10:14:28;4.82;;;0.77;;
75990;SDS011;64673;52.276;10.560;2023-02-01T10:25:55;7.10;;;1.30;;
75990;SDS011;64673;52.276;10.560;2023-02-01T10:28:21;5.78;;;1.20;;
75990;SDS011;64673;52.276;10.560;2023-02-01T10:30:50;7.28;;;1.20;;
75990;SDS011;64673;52.276;10.560;2023-02-01T10:35:46;10.70;;;1.17;;
75990;SDS011;64673;52.276;10.560;2023-02-01T10:38:29;6.05;;;0.90;;
75990;SDS011;64673;52.276;10.560;2023-02-01T10:41:18;6.43;;;0.55;;
75990;SDS011;64673;52.276;10.560;2023-02-01T10:43:49;5.95;;;1.55;;
75990;SDS011;64673;52.276;10.560;2023-02-01T10:46:19;7.82;;;1.65;;
75990;SDS011;64673;52.276;10.560;2023-02-01T10:48:45;6.78;;;1.00;;
75990;SDS011;64673;52.276;10.560;2023-02-01T10:51:14;7.93;;;1.27;;
75990;SDS011;64673;52.276;10.560;2023-02-01T10:54:03;4.03;;;0.80;;
75990;SDS011;64673;52.276;10.560;2023-02-01T10:56:37;3.58;;;1.00;;
75990;SDS011;64673;52.276;10.560;2023-02-01T10:59:04;5.93;;;0.90;;
75990;SDS011;64673;52.276;10.560;2023-02-01T11:01:34;6.57;;;1.77;;
75990;SDS011;64673;52.276;10.560;2023-02-01T11:04:03;6.63;;;1.02;;
75990;SDS011;64673;52.276;10.560;2023-02-01T11:06:38;5.50;;;1.30;;
75990;SDS011;64673;52.276;10.560;2023-02-01T11:09:15;5.18;;;1.25;;
75990;SDS011;64673;52.276;10.560;2023-02-01T11:16:40;9.45;;;1.67;;
75990;SDS011;64673;52.276;10.560;2023-02-01T11:19:05;5.35;;;1.00;;
75990;SDS011;64673;52.276;10.560;2023-02-01T11:21:32;7.25;;;1.10;;
75990;SDS011;64673;52.276;10.560;2023-02-01T11:24:05;5.78;;;1.20;;
75990;SDS011;64673;52.276;10.560;2023-02-01T11:26:38;13.18;;;1.52;;
75990;SDS011;64673;52.276;10.560;2023-02-01T11:29:12;8.30;;;1.65;;
75990;SDS011;64673;52.276;10.560;2023-02-01T11:31:43;5.10;;;1.20;;
75990;SDS011;64673;52.276;10.560;2023-02-01T11:34:17;5.18;;;1.17;;
75990;SDS011;64673;52.276;10.560;2023-02-01T11:36:48;5.47;;;1.30;;
75990;SDS011;64673;52.276;10.560;2023-02-01T11:41:43;15.23;;;1.43;;
75990;SDS011;64673;52.276;10.560;2023-02-01T11:44:22;6.05;;;1.30;;
75990;SDS011;64673;52.276;10.560;2023-02-01T11:46:55;9.35;;;1.50;;
75990;SDS011;64673;52.276;10.560;2023-02-01T11:49:23;7.75;;;1.35;;
75990;SDS011;64673;52.276;10.560;2023-02-01T12:03:06;7.13;;;1.20;;
75990;SDS011;64673;52.276;10.560;2023-02-01T12:41:49;5.15;;;1.30;;
75990;SDS011;64673;52.276;10.560;2023-02-01T12:46:54;4.45;;;1.02;;
75990;SDS011;64673;52.276;10.560;2023-02-01T12:49:27;12.45;;;1.67;;
75990;SDS011;64673;52.276;10.560;2023-02-01T12:52:00;4.68;;;1.13;;
75990;SDS011;64673;52.276;10.560;2023-02-01T12:57:11;7.45;;;1.17;;
75990;SDS011;64673;52.276;10.560;2023-02-01T13:00:01;10.85;;;1.52;;
75990;SDS011;64673;52.276;10.560;2023-02-01T13:02:41;6.30;;;1.10;;
75990;SDS011;64673;52.276;10.560;2023-02-01T13:05:19;11.02;;;1.85;;
75990;SDS011;64673;52.276;10.560;2023-02-01T13:10:28;6.20;;;1.67;;
75990;SDS011;64673;52.276;10.560;2023-02-01T13:15:42;6.18;;;1.17;;
75990;SDS011;64673;52.276;10.560;2023-02-01T13:18:20;4.53;;;1.17;;
75990;SDS011;64673;52.276;10.560;2023-02-01T13:20:55;5.28;;;1.10;;
75990;SDS011;64673;52.276;10.560;2023-02-01T13:23:31;7.60;;;1.17;;
75990;SDS011;64673;52.276;10.560;2023-02-01T13:26:00;5.95;;;1.42;;
75990;SDS011;64673;52.276;10.560;2023-02-01T13:39:47;4.65;;;1.42;;
75990;SDS011;64673;52.276;10.560;2023-02-01T13:42:22;8.07;;;1.45;;
75990;SDS011;64673;52.276;10.560;2023-02-01T13:44:54;10.20;;;1.70;;
75990;SDS011;64673;52.276;10.560;2023-02-01T13:49:48;7.07;;;1.60;;
75990;SDS011;64673;52.276;10.560;2023-02-01T13:55:00;4.55;;;1.27;;
75990;SDS011;64673;52.276;10.560;2023-02-01T13:57:37;4.55;;;0.90;;
75990;SDS011;64673;52.276;10.560;2023-02-01T14:08:02;3.40;;;1.00;;
75990;SDS011;64673;52.276;10.560;2023-02-01T14:13:33;1.17;;;0.30;;
75990;SDS011;64673;52.276;10.560;2023-02-01T14:24:01;0.47;;;0.10;;
75990;SDS011;64673;52.276;10.560;2023-02-01T14:26:45;1.42;;;0.28;;
75990;SDS011;64673;52.276;10.560;2023-02-01T14:37:06;3.20;;;0.20;;
75990;SDS011;64673;52.276;10.560;2023-02-01T14:39:49;0.17;;;0.00;;
75990;SDS011;64673;52.276;10.560;2023-02-01T14:42:22;0.95;;;0.17;;
75990;SDS011;64673;52.276;10.560;2023-02-01T14:44:49;2.10;;;0.45;;
75990;SDS011;64673;52.276;10.560;2023-02-01T14:52:40;0.93;;;0.40;;
75990;SDS011;64673;52.276;10.560;2023-02-01T14:55:15;1.15;;;0.30;;
75990;SDS011;64673;52.276;10.560;2023-02-01T14:57:49;1.85;;;0.20;;
75990;SDS011;64673;52.276;10.560;2023-02-01T15:00:20;0.70;;;0.10;;
75990;SDS011;64673;52.276;10.560;2023-02-01T15:02:48;3.17;;;0.28;;
75990;SDS011;64673;52.276;10.560;2023-02-01T15:05:29;1.75;;;0.30;;
75990;SDS011;64673;52.276;10.560;2023-02-01T15:07:57;0.47;;;0.10;;
75990;SDS011;64673;52.276;10.560;2023-02-01T15:10:29;0.75;;;0.20;;
75990;SDS011;64673;52.276;10.560;2023-02-01T15:12:57;0.60;;;0.20;;
75990;SDS011;64673;52.276;10.560;2023-02-01T15:15:23;1.48;;;0.20;;
75990;SDS011;64673;52.276;10.560;2023-02-01T15:17:50;1.05;;;0.30;;
75990;SDS011;64673;52.276;10.560;2023-02-01T15:20:22;1.60;;;0.32;;
75990;SDS011;64673;52.276;10.560;2023-02-01T15:22:57;3.13;;;0.20;;
75990;SDS011;64673;52.276;10.560;2023-02-01T15:25:34;0.50;;;0.20;;
75990;SDS011;64673;52.276;10.560;2023-02-01T15:28:02;2.58;;;0.63;;
75990;SDS011;64673;52.276;10.560;2023-02-01T15:30:29;0.77;;;0.20;;
75990;SDS011;64673;52.276;10.560;2023-02-01T15:35:43;2.10;;;0.30;;
75990;SDS011;64673;52.276;10.560;2023-02-01T15:43:27;2.65;;;0.50;;
75990;SDS011;64673;52.276;10.560;2023-02-01T15:45:58;3.08;;;0.50;;
75990;SDS011;64673;52.276;10.560;2023-02-01T15:48:27;3.13;;;0.50;;
75990;SDS011;64673;52.276;10.560;2023-02-01T15:50:59;2.65;;;0.60;;
75990;SDS011;64673;52.276;10.560;2023-02-01T15:53:25;2.83;;;0.13;;
75990;SDS011;64673;52.276;10.560;2023-02-01T15:55:56;4.35;;;0.40;;
75990;SDS011;64673;52.276;10.560;2023-02-01T15:58:25;2.50;;;0.38;;
75990;SDS011;64673;52.276;10.560;2023-02-01T16:03:34;1.50;;;0.50;;
75990;SDS011;64673;52.276;10.560;2023-02-01T16:06:07;2.30;;;0.55;;
75990;SDS011;64673;52.276;10.560;2023-02-01T16:08:36;0.77;;;0.22;;
75990;SDS011;64673;52.276;10.560;2023-02-01T16:13:33;1.83;;;0.40;;
75990;SDS011;64673;52.276;10.560;2023-02-01T16:15:59;3.65;;;0.50;;
75990;SDS011;64673;52.276;10.560;2023-02-01T16:18:24;0.80;;;0.38;;
75990;SDS011;64673;52.276;10.560;2023-02-01T16:20:49;2.33;;;0.40;;
75990;SDS011;64673;52.276;10.560;2023-02-01T16:23:15;3.53;;;1.05;;
75990;SDS011;64673;52.276;10.560;2023-02-01T16:25:40;2.95;;;0.40;;
75990;SDS011;64673;52.276;10.560;2023-02-01T16:28:06;3.88;;;0.45;;
75990;SDS011;64673;52.276;10.560;2023-02-01T16:30:32;6.40;;;1.58;;
75990;SDS011;64673;52.276;10.560;2023-02-01T16:32:58;5.70;;;0.68;;
75990;SDS011;64673;52.276;10.560;2023-02-01T16:38:00;3.70;;;0.90;;
75990;SDS011;64673;52.276;10.560;2023-02-01T16:40:26;7.00;;;0.90;;
75990;SDS011;64673;52.276;10.560;2023-02-01T16:42:52;3.70;;;0.85;;
75990;SDS011;64673;52.276;10.560;2023-02-01T16:45:20;5.15;;;1.35;;
75990;SDS011;64673;52.276;10.560;2023-02-01T16:47:47;4.82;;;1.00;;
75990;SDS011;64673;52.276;10.560;2023-02-01T16:50:17;2.80;;;0.82;;
75990;SDS011;64673;52.276;10.560;2023-02-01T16:52:45;5.07;;;1.20;;
75990;SDS011;64673;52.276;10.560;2023-02-01T16:55:12;3.65;;;1.80;;
75990;SDS011;64673;52.276;10.560;2023-02-01T16:57:38;8.30;;;1.35;;
75990;SDS011;64673;52.276;10.560;2023-02-01T17:00:04;3.42;;;1.20;;
75990;SDS011;64673;52.276;10.560;2023-02-01T17:02:30;5.57;;;1.40;;
75990;SDS011;64673;52.276;10.560;2023-02-01T17:04:56;5.07;;;1.25;;
75990;SDS011;64673;52.276;10.560;2023-02-01T17:07:21;3.55;;;0.90;;
75990;SDS011;64673;52.276;10.560;2023-02-01T17:09:46;5.30;;;0.88;;
75990;SDS011;64673;52.276;10.560;2023-02-01T17:12:16;5.28;;;1.02;;
75990;SDS011;64673;52.276;10.560;2023-02-01T17:14:43;5.65;;;1.25;;
75990;SDS011;64673;52.276;10.560;2023-02-01T17:17:08;9.80;;;1.30;;
75990;SDS011;64673;52.276;10.560;2023-02-01T17:19:34;4.93;;;1.00;;
75990;SDS011;64673;52.276;10.560;2023-02-01T17:22:00;3.88;;;1.08;;
75990;SDS011;64673;52.276;10.560;2023-02-01T17:24:26;3.95;;;1.10;;
75990;SDS011;64673;52.276;10.560;2023-02-01T17:26:54;6.97;;;1.35;;
75990;SDS011;64673;52.276;10.560;2023-02-01T17:29:19;9.15;;;1.50;;
75990;SDS011;64673;52.276;10.560;2023-02-01T17:31:46;9.48;;;1.30;;
75990;SDS011;64673;52.276;10.560;2023-02-01T17:34:14;8.88;;;1.10;;
75990;SDS011;64673;52.276;10.560;2023-02-01T17:36:41;5.72;;;0.93;;
75990;SDS011;64673;52.276;10.560;2023-02-01T17:39:07;7.15;;;0.95;;
75990;SDS011;64673;52.276;10.560;2023-02-01T17:41:33;10.80;;;1.55;;
75990;SDS011;64673;52.276;10.560;2023-02-01T17:44:00;3.28;;;0.90;;
75990;SDS011;64673;52.276;10.560;2023-02-01T17:46:26;7.50;;;1.20;;
75990;SDS011;64673;52.276;10.560;2023-02-01T17:48:52;4.90;;;1.10;;
75990;SDS011;64673;52.276;10.560;2023-02-01T17:51:20;5.88;;;2.03;;
75990;SDS011;64673;52.276;10.560;2023-02-01T17:53:47;2.00;;;0.75;;
75990;SDS011;64673;52.276;10.560;2023-02-01T17:56:17;6.85;;;1.38;;